createdAt,value
2022-10-23T00:02:04.871Z,100335.16
2022-10-23T00:04:34.119Z,100337.16
2022-10-23T00:07:05.596Z,100342.25
2022-10-23T00:09:37.412Z,100343.41
2022-10-23T00:12:06.620Z,100335.84
2022-10-23T00:14:36.010Z,100343.31
2022-10-23T00:17:05.571Z,100341.69
2022-10-23T00:19:34.520Z,100350.72
2022-10-23T00:22:04.739Z,100343.16
2022-10-23T00:24:34.100Z,100337.56
2022-10-23T00:27:04.943Z,100334.34
2022-10-23T00:29:40.036Z,100331.13
2022-10-23T00:32:11.764Z,100331.09
2022-10-23T00:34:41.582Z,100329.06
2022-10-23T00:37:10.855Z,100331.78
2022-10-23T00:39:40.220Z,100335.66
2022-10-23T00:42:11.417Z,100332.03
2022-10-23T00:44:43.422Z,100325.31
2022-10-23T00:47:14.312Z,100337.53
2022-10-23T00:49:43.557Z,100326.66
2022-10-23T00:52:14.709Z,100331.13
2022-10-23T00:54:44.926Z,100329.56
2022-10-23T00:57:18.729Z,100333.88
2022-10-23T00:59:56.933Z,100327.91
2022-10-23T01:02:26.218Z,100332.25
2022-10-23T01:04:55.452Z,100326.31
2022-10-23T01:07:43.285Z,100333.00
2022-10-23T01:10:38.171Z,100339.69
2022-10-23T01:13:30.978Z,100335.50
2022-10-23T01:16:15.099Z,100329.44
2022-10-23T01:18:57.497Z,100332.38
2022-10-23T01:21:32.354Z,100327.41
2022-10-23T01:24:26.753Z,100330.50
2022-10-23T01:27:26.693Z,100325.28
2022-10-23T01:30:12.679Z,100328.03
2022-10-23T01:32:55.076Z,100324.72
2022-10-23T01:35:32.427Z,100327.97
2022-10-23T01:38:15.803Z,100327.28
2022-10-23T01:40:58.790Z,100325.75
2022-10-23T01:43:33.756Z,100334.38
2022-10-23T01:46:07.789Z,100336.63
2022-10-23T01:48:39.654Z,100337.50
2022-10-23T01:51:12.342Z,100336.66
2022-10-23T01:53:44.622Z,100335.94
2022-10-23T01:56:24.185Z,100341.41
2022-10-23T01:58:59.441Z,100342.34
2022-10-23T02:01:34.655Z,100338.66
2022-10-23T02:04:11.603Z,100340.84
2022-10-23T02:06:40.567Z,100336.69
2022-10-23T02:09:09.700Z,100325.25
2022-10-23T02:11:56.458Z,100334.88
2022-10-23T02:15:09.701Z,100336.44
2022-10-23T02:17:47.920Z,100353.31
2022-10-23T02:20:23.560Z,100359.19
2022-10-23T02:23:05.547Z,100361.47
2022-10-23T02:25:58.144Z,100370.19
2022-10-23T02:28:51.692Z,100378.84
2022-10-23T02:31:23.892Z,100385.91
2022-10-23T02:33:53.295Z,100384.72
2022-10-23T02:36:22.421Z,100378.69
2022-10-23T02:38:51.665Z,100381.81
2022-10-23T02:41:50.267Z,100386.19
2022-10-23T02:44:41.012Z,100385.81
2022-10-23T02:47:37.325Z,100382.91
2022-10-23T02:50:17.915Z,100387.69
2022-10-23T02:53:03.399Z,100394.81
2022-10-23T02:56:04.519Z,100395.59
2022-10-23T02:58:50.570Z,100399.44
2022-10-23T03:01:24.903Z,100395.53
2022-10-23T03:03:58.261Z,100389.22
2022-10-23T03:06:27.786Z,100396.66
2022-10-23T03:09:06.284Z,100401.72
2022-10-23T03:11:35.838Z,100407.19
2022-10-23T03:14:08.358Z,100397.78
2022-10-23T03:16:37.605Z,100394.72
2022-10-23T03:19:07.312Z,100394.38
2022-10-23T03:21:36.537Z,100394.75
2022-10-23T03:24:09.846Z,100399.81
2022-10-23T03:26:43.687Z,100403.41
2022-10-23T03:29:12.859Z,100410.59
2022-10-23T03:31:45.335Z,100405.75
2022-10-23T03:34:15.903Z,100409.69
2022-10-23T03:36:45.140Z,100414.88
2022-10-23T03:39:14.483Z,100416.84
2022-10-23T03:41:44.761Z,100416.28
2022-10-23T03:44:15.779Z,100421.19
2022-10-23T03:46:46.750Z,100416.66
2022-10-23T03:49:16.060Z,100420.16
2022-10-23T03:51:52.658Z,100409.81
2022-10-23T03:54:25.032Z,100419.59
2022-10-23T03:56:57.511Z,100423.53
2022-10-23T03:59:28.689Z,100424.19
2022-10-23T04:01:58.069Z,100430.53
2022-10-23T04:04:27.445Z,100430.28
2022-10-23T04:06:56.452Z,100420.41
2022-10-23T04:09:25.774Z,100416.34
2022-10-23T04:11:57.240Z,100419.63
2022-10-23T04:14:29.718Z,100425.78
2022-10-23T04:16:58.923Z,100430.50
2022-10-23T04:19:34.992Z,100426.63
2022-10-23T04:22:04.422Z,100420.63
2022-10-23T04:24:35.288Z,100424.25
2022-10-23T04:27:04.474Z,100432.13
2022-10-23T04:29:33.986Z,100431.97
2022-10-23T04:32:05.096Z,100438.84
2022-10-23T04:34:34.221Z,100441.66
2022-10-23T04:37:04.284Z,100449.69
2022-10-23T04:39:33.359Z,100449.88
2022-10-23T04:42:03.376Z,100460.34
2022-10-23T04:44:32.437Z,100457.69
2022-10-23T04:47:01.705Z,100471.50
2022-10-23T04:49:32.325Z,100476.13
2022-10-23T04:52:21.534Z,100483.19
2022-10-23T04:55:23.150Z,100495.00
2022-10-23T04:58:07.331Z,100504.03
2022-10-23T05:00:36.442Z,100509.81
2022-10-23T05:03:05.460Z,100512.75
2022-10-23T05:05:41.175Z,100523.28
2022-10-23T05:08:45.355Z,100530.19
2022-10-23T05:11:42.781Z,100528.16
2022-10-23T05:14:11.870Z,100532.03
2022-10-23T05:16:44.541Z,100543.41
2022-10-23T05:19:23.339Z,100545.34
2022-10-23T05:21:56.757Z,100548.78
2022-10-23T05:24:38.260Z,100557.41
2022-10-23T05:27:10.421Z,100561.66
2022-10-23T05:29:42.352Z,100559.63
2022-10-23T05:32:13.141Z,100566.38
2022-10-23T05:34:43.671Z,100568.19
2022-10-23T05:37:15.741Z,100568.63
2022-10-23T05:39:45.019Z,100565.44
2022-10-23T05:42:16.453Z,100581.16
2022-10-23T05:44:45.588Z,100583.84
2022-10-23T05:47:34.485Z,100590.50
2022-10-23T05:50:29.832Z,100586.66
2022-10-23T05:53:21.804Z,100594.84
2022-10-23T05:56:08.930Z,100595.22
2022-10-23T05:58:55.418Z,100601.53
2022-10-23T06:01:47.605Z,100600.66
2022-10-23T06:04:21.633Z,100607.22
2022-10-23T06:07:10.276Z,100612.91
2022-10-23T06:09:40.019Z,100613.09
2022-10-23T06:12:10.651Z,100612.66
2022-10-23T06:14:44.626Z,100613.47
2022-10-23T06:17:14.285Z,100617.38
2022-10-23T06:19:47.080Z,100611.53
2022-10-23T06:24:53.449Z,100623.59
2022-10-23T06:27:26.996Z,100631.13
2022-10-23T06:29:57.443Z,100631.03
2022-10-23T06:32:26.719Z,100634.41
2022-10-23T06:35:08.317Z,100632.03
2022-10-23T06:37:37.763Z,100640.66
2022-10-23T06:40:27.601Z,100631.22
2022-10-23T06:43:01.140Z,100639.22
2022-10-23T06:46:05.780Z,100635.38
2022-10-23T06:48:53.267Z,100644.88
2022-10-23T06:51:30.444Z,100651.97
2022-10-23T06:53:59.604Z,100648.09
2022-10-23T06:56:46.631Z,100647.34
2022-10-23T06:59:20.404Z,100643.88
2022-10-23T07:01:52.166Z,100647.84
2022-10-23T07:04:21.513Z,100650.72
2022-10-23T07:06:51.006Z,100648.38
2022-10-23T07:09:26.651Z,100655.50
2022-10-23T07:11:55.721Z,100657.09
2022-10-23T07:14:40.224Z,100660.28
2022-10-23T07:17:09.417Z,100663.41
2022-10-23T07:19:40.607Z,100663.50
2022-10-23T07:22:18.605Z,100663.94
2022-10-23T07:24:57.001Z,100670.59
2022-10-23T07:27:39.408Z,100676.97
2022-10-23T07:30:11.413Z,100678.13
2022-10-23T07:32:47.109Z,100680.09
2022-10-23T07:35:34.269Z,100678.56
2022-10-23T07:38:14.620Z,100676.25
2022-10-23T07:40:47.636Z,100675.81
2022-10-23T07:43:21.966Z,100676.25
2022-10-23T07:45:51.657Z,100678.56
2022-10-23T07:48:40.885Z,100675.91
2022-10-23T07:51:14.495Z,100684.19
2022-10-23T07:53:49.767Z,100683.38
2022-10-23T07:56:32.465Z,100694.47
2022-10-23T07:59:16.499Z,100696.00
2022-10-23T08:01:55.077Z,100713.41
2022-10-23T08:04:31.469Z,100711.06
2022-10-23T08:07:07.002Z,100718.19
2022-10-23T08:09:41.671Z,100719.72
2022-10-23T08:12:11.752Z,100727.19
2022-10-23T08:14:41.052Z,100719.72
2022-10-23T08:17:10.577Z,100725.31
2022-10-23T08:19:57.826Z,100718.56
2022-10-23T08:22:31.803Z,100729.22
2022-10-23T08:25:01.631Z,100729.22
2022-10-23T08:27:31.122Z,100737.94
2022-10-23T08:30:00.270Z,100732.44
2022-10-23T08:32:31.990Z,100731.63
2022-10-23T08:35:04.086Z,100735.63
2022-10-23T08:37:34.929Z,100736.84
2022-10-23T08:40:06.768Z,100726.34
2022-10-23T08:43:19.765Z,100739.78
2022-10-23T08:46:08.567Z,100736.13
2022-10-23T08:49:21.306Z,100731.13
2022-10-23T08:52:23.033Z,100731.06
2022-10-23T08:55:01.133Z,100744.84
2022-10-23T08:57:41.438Z,100746.94
2022-10-23T09:00:17.868Z,100746.94
2022-10-23T09:02:49.949Z,100746.25
2022-10-23T09:05:51.129Z,100757.53
2022-10-23T09:08:58.148Z,100757.91
2022-10-23T09:11:44.008Z,100756.38
2022-10-23T09:14:54.637Z,100759.56
2022-10-23T09:17:46.991Z,100768.22
2022-10-23T09:20:37.235Z,100773.66
2022-10-23T09:23:20.897Z,100778.13
2022-10-23T09:25:56.297Z,100769.94
2022-10-23T09:28:32.606Z,100769.00
2022-10-23T09:31:09.782Z,100768.22
2022-10-23T09:33:39.530Z,100771.28
2022-10-23T09:36:19.195Z,100772.28
2022-10-23T09:38:48.440Z,100775.06
2022-10-23T09:41:39.187Z,100793.56
2022-10-23T09:44:19.754Z,100800.31
2022-10-23T09:46:55.784Z,100808.88
2022-10-23T09:49:33.077Z,100809.06
2022-10-23T09:52:14.242Z,100812.50
2022-10-23T09:54:51.467Z,100811.34
2022-10-23T09:57:39.120Z,100812.06
2022-10-23T10:00:28.614Z,100818.31
2022-10-23T10:03:01.171Z,100818.69
2022-10-23T10:05:43.111Z,100829.59
2022-10-23T10:08:23.998Z,100824.44
2022-10-23T10:10:58.910Z,100821.25
2022-10-23T10:13:38.169Z,100833.34
2022-10-23T10:16:21.674Z,100836.75
2022-10-23T10:19:20.027Z,100835.94
2022-10-23T10:22:27.447Z,100847.66
2022-10-23T10:25:08.022Z,100851.13
2022-10-23T10:27:46.432Z,100862.59
2022-10-23T10:30:16.277Z,100863.06
2022-10-23T10:33:08.254Z,100859.47
2022-10-23T10:35:54.537Z,100859.94
2022-10-23T10:38:58.386Z,100860.31
2022-10-23T10:41:43.202Z,100858.69
2022-10-23T10:44:20.972Z,100865.81
2022-10-23T10:47:19.948Z,100868.09
2022-10-23T10:50:24.248Z,100869.53
2022-10-23T10:53:30.807Z,100872.53
2022-10-23T10:56:06.513Z,100878.84
2022-10-23T10:58:50.533Z,100884.16
2022-10-23T11:01:28.636Z,100893.75
2022-10-23T11:04:19.112Z,100902.13
2022-10-23T11:06:52.781Z,100904.53
2022-10-23T11:09:26.199Z,100910.75
2022-10-23T11:11:55.772Z,100916.69
2022-10-23T11:14:32.243Z,100919.81
2022-10-23T11:17:14.489Z,100916.94
2022-10-23T11:20:24.660Z,100918.81
2022-10-23T11:23:22.049Z,100913.50
2022-10-23T11:26:05.998Z,100918.56
2022-10-23T11:28:37.633Z,100919.50
2022-10-23T11:31:40.533Z,100926.84
2022-10-23T11:34:43.173Z,100922.75
2022-10-23T11:37:18.950Z,100923.88
2022-10-23T11:40:08.441Z,100929.38
2022-10-23T11:42:40.709Z,100927.88
2022-10-23T11:45:33.529Z,100937.97
2022-10-23T11:48:20.333Z,100930.19
2022-10-23T11:50:49.452Z,100937.16
2022-10-23T11:53:33.799Z,100943.34
2022-10-23T11:56:15.485Z,100950.38
2022-10-23T11:58:47.956Z,100944.50
2022-10-23T12:01:45.135Z,100961.31
2022-10-23T12:04:17.017Z,100963.78
2022-10-23T12:06:50.831Z,100967.25
2022-10-23T12:09:41.339Z,100973.00
2022-10-23T12:12:12.040Z,100980.47
2022-10-23T12:14:45.461Z,100983.47
2022-10-23T12:17:26.314Z,100987.69
2022-10-23T12:20:16.971Z,101001.03
2022-10-23T12:23:05.561Z,101008.81
2022-10-23T12:26:11.671Z,101009.22
2022-10-23T12:29:11.971Z,101018.16
2022-10-23T12:32:07.443Z,101007.22
2022-10-23T12:34:50.381Z,101022.81
2022-10-23T12:37:23.144Z,101030.19
2022-10-23T12:39:57.645Z,101033.63
2022-10-23T12:42:30.188Z,101044.84
2022-10-23T12:45:08.111Z,101056.13
2022-10-23T12:50:18.688Z,101054.97
2022-10-23T12:52:58.615Z,101070.34
2022-10-23T12:55:33.632Z,101073.63
2022-10-23T12:58:07.237Z,101072.38
2022-10-23T13:00:36.395Z,101079.97
2022-10-23T13:03:05.819Z,101080.88
2022-10-23T13:05:35.086Z,101087.28
2022-10-23T13:08:04.988Z,101087.50
2022-10-23T13:10:48.972Z,101093.03
2022-10-23T13:13:24.796Z,101085.91
2022-10-23T13:15:53.846Z,101084.31
2022-10-23T13:18:22.804Z,101098.53
2022-10-23T13:20:54.838Z,101105.63
2022-10-23T13:23:35.846Z,101106.34
2022-10-23T13:26:22.556Z,101116.41
2022-10-23T13:28:52.631Z,101126.16
2022-10-23T13:31:26.469Z,101130.88
2022-10-23T13:34:04.416Z,101130.66
2022-10-23T13:36:37.230Z,101136.06
2022-10-23T13:39:13.300Z,101137.06
2022-10-23T13:41:43.770Z,101140.53
2022-10-23T13:44:15.395Z,101143.28
2022-10-23T13:46:45.158Z,101148.78
2022-10-23T13:49:14.376Z,101153.59
2022-10-23T13:51:48.570Z,101152.91
2022-10-23T13:54:29.372Z,101156.13
2022-10-23T13:56:58.826Z,101169.41
2022-10-23T13:59:27.821Z,101171.94
2022-10-23T14:01:57.051Z,101158.63
2022-10-23T14:04:26.193Z,101181.13
2022-10-23T14:06:59.254Z,101183.88
2022-10-23T14:09:28.371Z,101190.97
2022-10-23T14:11:57.316Z,101191.22
2022-10-23T14:14:26.421Z,101196.19
2022-10-23T14:16:55.772Z,101200.19
2022-10-23T14:19:24.864Z,101201.25
2022-10-23T14:21:53.964Z,101208.69
2022-10-23T14:24:23.044Z,101190.78
2022-10-23T14:26:51.984Z,101192.75
2022-10-23T14:29:24.156Z,101199.50
2022-10-23T14:31:53.797Z,101194.94
2022-10-23T14:34:22.762Z,101201.13
2022-10-23T14:37:07.365Z,101201.13
2022-10-23T14:39:37.148Z,101211.91
2022-10-23T14:42:06.572Z,101205.25
2022-10-23T14:44:35.902Z,101211.69
2022-10-23T14:47:05.423Z,101216.03
2022-10-23T14:49:36.423Z,101219.47
2022-10-23T14:52:07.074Z,101218.66
2022-10-23T14:54:37.207Z,101225.69
2022-10-23T14:57:07.624Z,101229.34
2022-10-23T14:59:36.851Z,101232.53
2022-10-23T15:02:05.869Z,101226.69
2022-10-23T15:04:34.923Z,101228.88
2022-10-23T15:07:07.835Z,101228.66
2022-10-23T15:09:37.526Z,101244.06
2022-10-23T15:12:08.509Z,101245.19
2022-10-23T15:14:37.587Z,101259.69
2022-10-23T15:17:06.601Z,101266.66
2022-10-23T15:19:35.595Z,101269.75
2022-10-23T15:22:05.152Z,101275.97
2022-10-23T15:24:34.193Z,101277.34
2022-10-23T15:27:05.150Z,101285.94
2022-10-23T15:29:34.610Z,101288.56
2022-10-23T15:32:08.570Z,101304.59
2022-10-23T15:34:38.489Z,101300.72
2022-10-23T15:37:08.523Z,101307.03
2022-10-23T15:39:39.034Z,101305.75
2022-10-23T15:42:12.060Z,101307.06
2022-10-23T15:44:42.246Z,101307.34
2022-10-23T15:47:11.936Z,101315.63
2022-10-23T15:49:45.290Z,101314.19
2022-10-23T15:52:14.629Z,101312.94
2022-10-23T15:54:43.701Z,101312.03
2022-10-23T15:57:12.975Z,101311.88
2022-10-23T15:59:42.244Z,101312.03
2022-10-23T16:02:13.135Z,101302.03
2022-10-23T16:04:42.309Z,101304.44
2022-10-23T16:07:11.330Z,101296.63
2022-10-23T16:09:40.420Z,101300.66
2022-10-23T16:12:09.709Z,101309.06
2022-10-23T16:14:39.692Z,101308.81
2022-10-23T16:17:09.657Z,101304.31
2022-10-23T16:19:38.890Z,101305.81
2022-10-23T16:22:12.596Z,101304.75
2022-10-23T16:24:41.712Z,101302.56
2022-10-23T16:27:15.819Z,101303.47
2022-10-23T16:29:45.622Z,101313.22
2022-10-23T16:32:14.642Z,101315.16
2022-10-23T16:34:43.748Z,101320.88
2022-10-23T16:37:13.079Z,101323.41
2022-10-23T16:39:52.748Z,101331.91
2022-10-23T16:42:41.351Z,101330.03
2022-10-23T16:45:34.456Z,101332.75
2022-10-23T16:48:07.484Z,101340.09
2022-10-23T16:53:14.135Z,101333.59
2022-10-23T16:55:43.129Z,101330.13
2022-10-23T16:58:12.460Z,101328.03
2022-10-23T17:00:41.680Z,101323.59
2022-10-23T17:03:11.641Z,101337.50
2022-10-23T17:05:40.732Z,101351.81
2022-10-23T17:08:09.730Z,101376.41
2022-10-23T17:10:38.800Z,101383.66
2022-10-23T17:13:07.784Z,101385.84
2022-10-23T17:15:36.978Z,101382.13
2022-10-23T17:18:07.400Z,101394.34
2022-10-23T17:20:36.475Z,101390.53
2022-10-23T17:23:06.025Z,101387.72
2022-10-23T17:25:35.074Z,101398.75
2022-10-23T17:29:24.336Z,101390.66
2022-10-23T17:31:30.285Z,101401.72
2022-10-23T17:34:05.123Z,101420.91
2022-10-23T17:36:37.848Z,101427.13
2022-10-23T17:39:09.288Z,101429.78
2022-10-23T17:41:39.015Z,101419.63
2022-10-23T17:44:08.217Z,101452.84
2022-10-23T17:46:37.260Z,101456.84
2022-10-23T17:49:07.109Z,101461.03
2022-10-23T17:51:37.233Z,101463.19
2022-10-23T17:54:09.132Z,101464.34
2022-10-23T17:56:39.235Z,101462.38
2022-10-23T17:59:14.384Z,101465.84
2022-10-23T18:01:53.273Z,101460.50
2022-10-23T18:04:22.929Z,101459.06
2022-10-23T18:06:54.693Z,101452.78
2022-10-23T18:09:24.656Z,101455.03
2022-10-23T18:11:53.743Z,101459.94
2022-10-23T18:14:26.070Z,101467.03
2022-10-23T18:16:57.774Z,101472.44
2022-10-23T18:19:27.131Z,101489.47
2022-10-23T18:21:56.479Z,101497.38
2022-10-23T18:24:27.450Z,101508.03
2022-10-23T18:26:56.495Z,101523.06
2022-10-23T18:29:25.573Z,101526.84
2022-10-23T18:31:54.914Z,101519.41
2022-10-23T18:34:26.075Z,101518.69
2022-10-23T18:36:56.338Z,101520.88
2022-10-23T18:39:26.763Z,101516.06
2022-10-23T18:41:58.584Z,101507.16
2022-10-23T18:44:31.779Z,101522.78
2022-10-23T18:47:01.414Z,101527.47
2022-10-23T18:49:31.135Z,101529.84
2022-10-23T18:52:00.136Z,101532.56
2022-10-23T18:54:30.598Z,101543.94
2022-10-23T18:56:59.596Z,101572.69
2022-10-23T18:59:28.633Z,101579.13
2022-10-23T19:01:57.698Z,101581.63
2022-10-23T19:04:27.082Z,101583.81
2022-10-23T19:06:56.224Z,101578.56
2022-10-23T19:09:25.469Z,101583.19
2022-10-23T19:11:54.463Z,101582.34
2022-10-23T19:14:23.733Z,101596.78
2022-10-23T19:17:04.476Z,101596.47
2022-10-23T19:19:42.729Z,101589.59
2022-10-23T19:22:13.584Z,101587.91
2022-10-23T19:24:48.049Z,101584.25
2022-10-23T19:27:17.280Z,101588.59
2022-10-23T19:29:49.589Z,101608.47
2022-10-23T19:32:19.716Z,101617.22
2022-10-23T19:34:49.142Z,101625.78
2022-10-23T19:37:18.375Z,101626.13
2022-10-23T19:39:47.523Z,101613.81
2022-10-23T19:42:17.002Z,101604.34
2022-10-23T19:44:46.202Z,101605.56
2022-10-23T19:47:15.427Z,101614.72
2022-10-23T19:49:44.856Z,101606.03
2022-10-23T19:52:13.991Z,101602.88
2022-10-23T19:54:43.398Z,101603.13
2022-10-23T19:57:13.408Z,101608.56
2022-10-23T19:59:45.751Z,101602.56
2022-10-23T20:02:16.164Z,101604.47
2022-10-23T20:04:45.961Z,101601.28
2022-10-23T20:07:16.068Z,101605.44
2022-10-23T20:09:45.781Z,101603.44
2022-10-23T20:12:20.806Z,101602.53
2022-10-23T20:14:50.636Z,101601.63
2022-10-23T20:17:19.805Z,101600.22
2022-10-23T20:19:49.748Z,101599.28
2022-10-23T20:22:20.333Z,101614.59
2022-10-23T20:24:49.796Z,101610.69
2022-10-23T20:27:19.616Z,101613.19
2022-10-23T20:29:49.559Z,101623.47
2022-10-23T20:32:19.418Z,101628.72
2022-10-23T20:34:48.543Z,101616.66
2022-10-23T20:37:17.779Z,101613.66
2022-10-23T20:39:46.885Z,101630.97
2022-10-23T20:42:16.044Z,101629.88
2022-10-23T20:44:45.119Z,101630.84
2022-10-23T20:47:14.657Z,101635.63
2022-10-23T20:49:43.799Z,101629.19
2022-10-23T20:52:13.028Z,101635.25
2022-10-23T20:54:42.363Z,101640.16
2022-10-23T20:57:17.893Z,101643.28
2022-10-23T20:59:50.329Z,101643.56
2022-10-23T21:02:19.629Z,101645.63
2022-10-23T21:04:51.532Z,101646.81
2022-10-23T21:07:21.753Z,101644.03
2022-10-23T21:09:51.002Z,101640.81
2022-10-23T21:12:20.203Z,101642.13
2022-10-23T21:14:49.323Z,101634.44
2022-10-23T21:17:19.755Z,101632.63
2022-10-23T21:19:49.227Z,101626.31
2022-10-23T21:22:18.548Z,101620.94
2022-10-23T21:24:47.944Z,101613.91
2022-10-23T21:27:18.128Z,101609.13
2022-10-23T21:29:47.187Z,101606.53
2022-10-23T21:32:16.497Z,101610.59
2022-10-23T21:34:49.132Z,101611.69
2022-10-23T21:37:18.417Z,101608.75
2022-10-23T21:39:47.762Z,101623.16
2022-10-23T21:42:17.100Z,101620.31
2022-10-23T21:44:46.322Z,101610.63
2022-10-23T21:47:15.551Z,101607.50
2022-10-23T21:49:44.895Z,101611.28
2022-10-23T21:52:16.232Z,101623.44
2022-10-23T21:54:53.702Z,101628.81
2022-10-23T21:57:22.806Z,101629.09
2022-10-23T21:59:52.198Z,101615.88
2022-10-23T22:02:21.606Z,101615.94
2022-10-23T22:04:50.751Z,101609.72
2022-10-23T22:09:59.652Z,101610.31
2022-10-23T22:12:31.482Z,101602.53
2022-10-23T22:15:00.590Z,101595.22
2022-10-23T22:17:31.167Z,101592.78
2022-10-23T22:20:00.218Z,101586.56
2022-10-23T22:22:29.576Z,101589.63
2022-10-23T22:24:59.562Z,101582.34
2022-10-23T22:27:31.216Z,101587.91
2022-10-23T22:30:00.299Z,101591.13
2022-10-23T22:32:30.189Z,101580.75
2022-10-23T22:34:59.359Z,101577.72
2022-10-23T22:37:28.406Z,101586.22
2022-10-23T22:39:57.449Z,101591.88
2022-10-23T22:42:26.581Z,101586.72
2022-10-23T22:44:55.557Z,101586.88
2022-10-23T22:47:25.020Z,101595.19
2022-10-23T22:49:54.099Z,101582.84
2022-10-23T22:52:23.129Z,101579.97
2022-10-23T22:54:54.045Z,101591.31
2022-10-23T22:57:23.444Z,101577.81
2022-10-23T22:59:52.593Z,101591.78
2022-10-23T23:02:21.903Z,101586.41
2022-10-23T23:04:54.359Z,101598.78
2022-10-23T23:07:23.719Z,101588.59
2022-10-23T23:09:52.760Z,101598.78
2022-10-23T23:12:22.677Z,101594.50
2022-10-23T23:14:53.537Z,101599.84
2022-10-23T23:17:23.534Z,101601.84
2022-10-23T23:19:52.862Z,101607.25
2022-10-23T23:22:22.120Z,101603.44
2022-10-23T23:24:51.312Z,101612.78
2022-10-23T23:27:20.432Z,101608.09
2022-10-23T23:29:50.021Z,101614.47
2022-10-23T23:32:19.171Z,101611.47
2022-10-23T23:34:48.615Z,101617.25
2022-10-23T23:37:18.170Z,101617.22
2022-10-23T23:39:47.358Z,101599.69
2022-10-23T23:42:19.652Z,101609.84
2022-10-23T23:44:56.031Z,101606.84
2022-10-23T23:47:32.961Z,101609.13
2022-10-23T23:50:05.674Z,101611.66
2022-10-23T23:52:35.336Z,101610.69
2022-10-23T23:55:07.188Z,101611.59
2022-10-23T23:57:36.484Z,101614.72
